createdAt,value
2023-03-20T00:00:37.227Z,37.60
2023-03-20T00:03:05.628Z,37.80
2023-03-20T00:05:33.782Z,37.50
2023-03-20T00:08:01.946Z,37.60
2023-03-20T00:10:37.557Z,37.80
2023-03-20T00:13:06.566Z,37.70
2023-03-20T00:15:39.056Z,37.70
2023-03-20T00:18:18.191Z,37.50
2023-03-20T00:20:46.711Z,37.70
2023-03-20T00:23:15.250Z,37.80
2023-03-20T00:25:46.774Z,37.60
2023-03-20T00:28:34.125Z,37.40
2023-03-20T00:31:02.164Z,37.60
2023-03-20T00:33:31.280Z,37.80
2023-03-20T00:35:59.945Z,37.40
2023-03-20T00:38:27.950Z,37.60
2023-03-20T00:40:57.393Z,37.20
2023-03-20T00:43:25.400Z,37.20
2023-03-20T00:45:53.486Z,37.40
2023-03-20T00:48:21.474Z,37.50
2023-03-20T00:50:49.854Z,36.60
2023-03-20T00:53:17.810Z,37.20
2023-03-20T00:55:45.906Z,36.80
2023-03-20T00:58:15.587Z,37.10
2023-03-20T01:00:45.361Z,37.20
2023-03-20T01:03:17.384Z,37.40
2023-03-20T01:05:46.320Z,37.20
2023-03-20T01:08:16.700Z,37.10
2023-03-20T01:10:46.903Z,37.30
2023-03-20T01:13:22.878Z,37.40
2023-03-20T01:15:53.021Z,37.10
2023-03-20T01:18:23.630Z,37.30
2023-03-20T01:20:53.487Z,36.90
2023-03-20T01:23:22.842Z,37.00
2023-03-20T01:25:51.820Z,37.20
2023-03-20T01:28:23.855Z,37.40
2023-03-20T01:30:52.545Z,37.40
2023-03-20T01:33:23.097Z,37.20
2023-03-20T01:35:52.379Z,37.30
2023-03-20T01:38:24.207Z,37.10
2023-03-20T01:40:58.128Z,37.20
2023-03-20T01:43:29.415Z,37.20
2023-03-20T01:46:02.804Z,36.90
2023-03-20T01:48:58.073Z,37.10
2023-03-20T01:51:27.922Z,37.20
2023-03-20T01:54:00.671Z,37.20
2023-03-20T01:56:43.816Z,37.30
2023-03-20T01:59:17.821Z,36.80
2023-03-20T02:01:46.469Z,37.20
2023-03-20T02:04:16.673Z,37.40
2023-03-20T02:06:45.858Z,37.00
2023-03-20T02:09:14.032Z,36.90
2023-03-20T02:11:43.946Z,36.40
2023-03-20T02:14:14.602Z,36.50
2023-03-20T02:16:42.684Z,37.30
2023-03-20T02:19:24.908Z,37.10
2023-03-20T02:22:30.591Z,37.20
2023-03-20T02:25:27.141Z,37.40
2023-03-20T02:28:34.243Z,37.00
2023-03-20T02:31:30.696Z,37.40
2023-03-20T02:34:29.908Z,37.00
2023-03-20T02:37:48.579Z,36.90
2023-03-20T02:40:28.371Z,37.00
2023-03-20T02:43:04.516Z,37.30
2023-03-20T02:45:40.899Z,37.20
2023-03-20T02:48:17.477Z,37.20
2023-03-20T02:50:52.286Z,37.00
2023-03-20T02:53:35.969Z,37.00
2023-03-20T02:56:13.927Z,37.30
2023-03-20T02:58:51.411Z,36.90
2023-03-20T03:01:23.632Z,36.90
2023-03-20T03:03:58.089Z,37.00
2023-03-20T03:06:31.503Z,37.30
2023-03-20T03:09:06.660Z,36.90
2023-03-20T03:11:40.921Z,36.80
2023-03-20T03:14:11.460Z,36.40
2023-03-20T03:16:41.553Z,36.90
2023-03-20T03:19:14.953Z,37.00
2023-03-20T03:21:42.883Z,36.90
2023-03-20T03:24:40.434Z,37.30
2023-03-20T03:27:21.824Z,36.90
2023-03-20T03:29:55.563Z,37.10
2023-03-20T03:32:29.404Z,36.20
2023-03-20T03:34:58.705Z,36.90
2023-03-20T03:37:41.698Z,37.00
2023-03-20T03:40:19.800Z,37.00
2023-03-20T03:42:57.613Z,36.90
2023-03-20T03:45:33.657Z,36.20
2023-03-20T03:48:08.219Z,36.70
2023-03-20T03:50:48.056Z,37.10
2023-03-20T03:53:20.798Z,36.30
2023-03-20T03:55:54.760Z,36.80
2023-03-20T03:58:27.511Z,36.90
2023-03-20T04:00:59.007Z,37.20
2023-03-20T04:03:33.836Z,36.80
2023-03-20T04:06:03.005Z,36.80
2023-03-20T04:08:31.030Z,36.60
2023-03-20T04:11:00.436Z,36.90
2023-03-20T04:13:28.448Z,36.40
2023-03-20T04:15:56.466Z,36.60
2023-03-20T04:18:24.692Z,37.00
2023-03-20T04:20:53.525Z,36.50
2023-03-20T04:23:21.532Z,37.30
2023-03-20T04:25:50.598Z,37.00
2023-03-20T04:28:20.048Z,36.50
2023-03-20T04:30:53.902Z,36.70
2023-03-20T04:33:22.102Z,36.60
2023-03-20T04:35:50.450Z,36.80
2023-03-20T04:38:19.834Z,36.80
2023-03-20T04:40:48.717Z,36.70
2023-03-20T04:43:18.660Z,36.70
2023-03-20T04:45:46.897Z,36.90
2023-03-20T04:48:15.234Z,36.70
2023-03-20T04:50:46.519Z,36.50
2023-03-20T04:53:14.578Z,36.90
2023-03-20T04:55:42.605Z,36.60
2023-03-20T04:58:10.754Z,36.50
2023-03-20T05:00:40.268Z,37.00
2023-03-20T05:03:08.265Z,36.90
2023-03-20T05:05:38.053Z,36.80
2023-03-20T05:08:06.777Z,36.90
2023-03-20T05:10:35.210Z,36.80
2023-03-20T05:13:03.216Z,36.60
2023-03-20T05:15:31.897Z,37.10
2023-03-20T05:18:01.259Z,37.20
2023-03-20T05:20:29.281Z,37.00
2023-03-20T05:22:57.277Z,36.80
2023-03-20T05:25:25.351Z,36.90
2023-03-20T05:27:53.350Z,36.90
2023-03-20T05:30:21.684Z,37.00
2023-03-20T05:32:51.960Z,37.10
2023-03-20T05:35:21.387Z,36.00
2023-03-20T05:37:49.462Z,37.00
2023-03-20T05:40:19.176Z,37.00
2023-03-20T05:42:47.525Z,37.00
2023-03-20T05:45:15.747Z,36.70
2023-03-20T05:47:43.747Z,36.70
2023-03-20T05:50:12.990Z,36.20
2023-03-20T05:52:42.261Z,36.40
2023-03-20T05:55:10.628Z,36.80
2023-03-20T05:57:38.543Z,37.00
2023-03-20T06:00:10.324Z,37.10
2023-03-20T06:02:38.761Z,37.00
2023-03-20T06:05:07.340Z,37.50
2023-03-20T06:07:35.323Z,37.00
2023-03-20T06:10:05.233Z,37.00
2023-03-20T06:12:33.210Z,36.90
2023-03-20T06:15:01.179Z,36.20
2023-03-20T06:17:29.245Z,38.20
2023-03-20T06:19:57.195Z,36.40
2023-03-20T06:22:25.265Z,36.40
2023-03-20T06:24:54.826Z,36.70
2023-03-20T06:27:27.099Z,36.00
2023-03-20T06:29:55.211Z,36.30
2023-03-20T06:32:23.207Z,36.60
2023-03-20T06:34:51.260Z,36.80
2023-03-20T06:37:20.657Z,36.70
2023-03-20T06:39:48.785Z,36.60
2023-03-20T06:42:17.594Z,36.80
2023-03-20T06:44:47.384Z,36.50
2023-03-20T06:47:15.562Z,36.50
2023-03-20T06:49:45.802Z,36.00
2023-03-20T06:52:18.299Z,37.10
2023-03-20T06:54:46.648Z,36.60
2023-03-20T06:57:15.488Z,37.30
2023-03-20T06:59:43.494Z,36.80
2023-03-20T07:02:12.952Z,36.30
2023-03-20T07:04:41.227Z,36.80
2023-03-20T07:07:10.030Z,36.90
2023-03-20T07:09:38.322Z,37.00
2023-03-20T07:12:06.698Z,36.10
2023-03-20T07:14:34.691Z,37.20
2023-03-20T07:17:02.671Z,37.10
2023-03-20T07:19:32.153Z,36.00
2023-03-20T07:22:02.980Z,36.50
2023-03-20T07:24:31.964Z,36.50
2023-03-20T07:26:59.959Z,35.50
2023-03-20T07:29:28.227Z,36.40
2023-03-20T07:31:56.291Z,36.40
2023-03-20T07:34:24.349Z,36.70
2023-03-20T07:36:53.694Z,36.50
2023-03-20T07:39:22.480Z,35.80
2023-03-20T07:41:50.631Z,36.30
2023-03-20T07:44:19.300Z,36.70
2023-03-20T07:46:47.958Z,36.60
2023-03-20T07:49:18.253Z,36.60
2023-03-20T07:51:46.370Z,35.90
2023-03-20T07:54:16.232Z,36.40
2023-03-20T07:56:44.886Z,36.40
2023-03-20T07:59:14.197Z,36.10
2023-03-20T08:01:42.286Z,36.30
2023-03-20T08:04:10.618Z,35.80
2023-03-20T08:06:39.763Z,35.70
2023-03-20T08:09:08.051Z,36.30
2023-03-20T08:11:37.486Z,35.30
2023-03-20T08:14:05.827Z,35.40
2023-03-20T08:16:33.915Z,35.10
2023-03-20T08:19:03.155Z,34.90
2023-03-20T08:21:32.099Z,35.70
2023-03-20T08:24:00.412Z,35.90
2023-03-20T08:26:28.569Z,35.70
2023-03-20T08:28:59.157Z,34.80
2023-03-20T08:31:27.133Z,35.80
2023-03-20T08:33:56.455Z,35.20
2023-03-20T08:36:24.861Z,35.70
2023-03-20T08:38:52.837Z,35.10
2023-03-20T08:41:21.058Z,34.70
2023-03-20T08:43:49.012Z,34.30
2023-03-20T08:46:18.418Z,34.90
2023-03-20T08:48:46.442Z,34.70
2023-03-20T08:51:14.958Z,34.30
2023-03-20T08:53:43.041Z,33.90
2023-03-20T08:56:12.041Z,33.40
2023-03-20T08:58:40.324Z,33.20
2023-03-20T09:01:10.773Z,33.70
2023-03-20T09:03:40.158Z,32.30
2023-03-20T09:06:10.480Z,32.10
2023-03-20T09:08:38.962Z,31.50
2023-03-20T09:11:08.277Z,30.70
2023-03-20T09:13:36.646Z,30.40
2023-03-20T09:16:06.080Z,30.20
2023-03-20T09:18:34.124Z,29.70
2023-03-20T09:21:03.805Z,29.50
2023-03-20T09:23:32.957Z,29.70
2023-03-20T09:26:01.204Z,29.60
2023-03-20T09:28:29.462Z,30.00
2023-03-20T09:30:58.651Z,29.40
2023-03-20T09:33:27.476Z,29.90
2023-03-20T09:35:55.992Z,30.00
2023-03-20T09:38:25.446Z,29.90
2023-03-20T09:40:55.774Z,29.90
2023-03-20T09:43:56.660Z,29.40
2023-03-20T09:47:19.435Z,30.20
2023-03-20T09:50:02.899Z,30.00
2023-03-20T09:52:34.135Z,30.00
2023-03-20T09:55:08.730Z,29.80
2023-03-20T09:57:42.075Z,30.00
2023-03-20T10:00:17.483Z,29.80
2023-03-20T10:02:51.898Z,29.90
2023-03-20T10:05:26.113Z,30.30
2023-03-20T10:07:57.288Z,30.20
2023-03-20T10:10:39.082Z,30.00
2023-03-20T10:13:29.827Z,30.40
2023-03-20T10:16:08.520Z,30.30
2023-03-20T10:18:41.767Z,30.50
2023-03-20T10:21:18.531Z,30.60
2023-03-20T10:23:55.052Z,30.40
2023-03-20T10:26:25.291Z,30.00
2023-03-20T10:28:59.046Z,30.70
2023-03-20T10:31:42.439Z,31.10
2023-03-20T10:34:40.602Z,31.90
2023-03-20T10:37:25.041Z,32.20
2023-03-20T10:40:05.488Z,32.70
2023-03-20T10:42:42.228Z,32.50
2023-03-20T10:45:36.307Z,33.00
2023-03-20T10:48:12.854Z,33.10
2023-03-20T10:50:46.224Z,32.90
2023-03-20T10:53:26.450Z,33.10
2023-03-20T10:55:59.310Z,33.50
2023-03-20T10:58:33.032Z,33.20
2023-03-20T11:01:02.710Z,33.30
2023-03-20T11:03:32.947Z,33.50
2023-03-20T11:06:09.805Z,33.70
2023-03-20T11:08:41.751Z,33.70
2023-03-20T11:11:10.824Z,33.90
2023-03-20T11:13:44.810Z,34.10
2023-03-20T11:16:22.322Z,33.70
2023-03-20T11:18:52.252Z,34.20
2023-03-20T11:21:24.466Z,34.40
2023-03-20T11:23:53.699Z,34.40
2023-03-20T11:26:36.536Z,34.30
2023-03-20T11:29:08.275Z,34.00
2023-03-20T11:31:40.602Z,34.00
2023-03-20T11:34:24.390Z,33.60
2023-03-20T11:37:09.770Z,34.00
2023-03-20T11:39:40.047Z,33.80
2023-03-20T11:42:25.407Z,34.00
2023-03-20T11:45:04.328Z,33.90
2023-03-20T11:47:35.262Z,34.10
2023-03-20T11:50:07.200Z,33.90
2023-03-20T11:52:38.494Z,34.00
2023-03-20T11:55:24.519Z,33.60
2023-03-20T11:57:57.300Z,34.00
2023-03-20T12:00:30.680Z,34.20
2023-03-20T12:02:58.648Z,34.10
2023-03-20T12:05:33.780Z,33.70
2023-03-20T12:08:05.129Z,33.60
2023-03-20T12:10:39.492Z,33.60
2023-03-20T12:13:15.860Z,33.40
2023-03-20T12:15:49.144Z,33.50
2023-03-20T12:18:26.387Z,33.60
2023-03-20T12:21:05.600Z,33.60
2023-03-20T12:23:39.182Z,33.70
2023-03-20T12:26:12.618Z,34.00
2023-03-20T12:28:49.464Z,33.60
2023-03-20T12:31:26.398Z,33.80
2023-03-20T12:33:59.903Z,34.00
2023-03-20T12:36:35.142Z,33.90
2023-03-20T12:39:06.937Z,33.90
2023-03-20T12:41:43.991Z,33.80
2023-03-20T12:44:24.458Z,33.80
2023-03-20T12:47:12.616Z,33.70
2023-03-20T12:49:52.787Z,34.30
2023-03-20T12:52:32.747Z,34.10
2023-03-20T12:55:18.224Z,34.10
2023-03-20T12:58:03.150Z,34.30
2023-03-20T13:00:37.317Z,34.20
2023-03-20T13:03:29.285Z,34.60
2023-03-20T13:06:08.003Z,33.90
2023-03-20T13:08:54.170Z,34.40
2023-03-20T13:11:30.594Z,33.70
2023-03-20T13:14:03.844Z,34.00
2023-03-20T13:16:46.855Z,34.30
2023-03-20T13:19:27.367Z,34.00
2023-03-20T13:22:02.150Z,34.00
2023-03-20T13:24:45.694Z,33.90
2023-03-20T13:27:29.512Z,33.60
2023-03-20T13:30:04.938Z,34.20
2023-03-20T13:32:49.150Z,34.20
2023-03-20T13:35:37.964Z,34.40
2023-03-20T13:38:14.209Z,34.00
2023-03-20T13:40:45.039Z,34.50
2023-03-20T13:43:25.296Z,33.50
2023-03-20T13:46:01.379Z,33.70
2023-03-20T13:48:35.789Z,33.50
2023-03-20T13:51:20.229Z,33.50
2023-03-20T13:53:58.882Z,33.80
2023-03-20T13:56:37.014Z,33.90
2023-03-20T13:59:31.908Z,33.70
2023-03-20T14:02:12.133Z,34.00
2023-03-20T14:04:40.911Z,34.10
2023-03-20T14:07:33.635Z,34.00
2023-03-20T14:10:36.138Z,34.00
2023-03-20T14:13:12.447Z,34.10
2023-03-20T14:15:48.579Z,34.00
2023-03-20T14:18:19.326Z,33.60
2023-03-20T14:20:57.461Z,34.00
2023-03-20T14:23:36.792Z,33.70
2023-03-20T14:26:11.665Z,33.80
2023-03-20T14:28:55.568Z,34.00
2023-03-20T14:31:32.193Z,33.30
2023-03-20T14:34:13.795Z,33.60
2023-03-20T14:36:58.360Z,33.60
2023-03-20T14:39:46.914Z,33.50
2023-03-20T14:42:30.649Z,33.40
2023-03-20T14:45:31.427Z,33.50
2023-03-20T14:48:07.522Z,33.70
2023-03-20T14:50:42.198Z,33.30
2023-03-20T14:53:17.419Z,33.50
2023-03-20T14:56:06.859Z,34.10
2023-03-20T14:58:56.890Z,34.50
2023-03-20T15:01:45.758Z,34.20
2023-03-20T15:04:30.628Z,34.20
2023-03-20T15:07:02.102Z,34.40
2023-03-20T15:09:33.995Z,34.30
2023-03-20T15:12:05.191Z,33.80
2023-03-20T15:14:41.534Z,34.00
2023-03-20T15:17:21.306Z,34.20
2023-03-20T15:19:49.847Z,34.50
2023-03-20T15:22:20.743Z,34.20
2023-03-20T15:24:55.731Z,34.70
2023-03-20T15:27:30.445Z,34.00
2023-03-20T15:30:01.601Z,34.60
2023-03-20T15:32:30.301Z,34.90
2023-03-20T15:34:58.805Z,35.10
2023-03-20T15:37:27.993Z,35.10
2023-03-20T15:39:58.996Z,35.00
2023-03-20T15:42:28.742Z,35.10
2023-03-20T15:44:57.694Z,34.10
2023-03-20T15:47:26.794Z,34.90
2023-03-20T15:49:57.103Z,35.00
2023-03-20T15:52:33.178Z,33.80
2023-03-20T15:55:06.153Z,34.40
2023-03-20T15:57:38.208Z,34.50
2023-03-20T16:00:10.148Z,33.80
2023-03-20T16:02:38.840Z,34.80
2023-03-20T16:05:13.239Z,34.80
2023-03-20T16:07:41.722Z,34.70
2023-03-20T16:10:22.129Z,34.70
2023-03-20T16:12:54.559Z,34.90
2023-03-20T16:15:27.557Z,34.70
2023-03-20T16:17:58.772Z,34.80
2023-03-20T16:20:30.174Z,33.80
2023-03-20T16:23:04.302Z,34.80
2023-03-20T16:25:32.552Z,35.00
2023-03-20T16:28:02.115Z,34.80
2023-03-20T16:30:32.809Z,34.80
2023-03-20T16:33:03.271Z,35.00
2023-03-20T16:35:37.920Z,35.20
2023-03-20T16:38:18.366Z,35.50
2023-03-20T16:40:46.392Z,34.00
2023-03-20T16:43:19.970Z,34.50
2023-03-20T16:45:54.346Z,35.50
2023-03-20T16:48:29.809Z,34.40
2023-03-20T16:51:02.224Z,35.30
2023-03-20T16:53:38.027Z,27.60
2023-03-20T16:56:12.069Z,31.00
2023-03-20T16:58:42.659Z,31.20
2023-03-20T17:01:17.720Z,31.20
2023-03-20T17:03:53.268Z,31.20
2023-03-20T17:06:45.809Z,31.40
2023-03-20T17:09:26.492Z,31.60
2023-03-20T17:12:03.746Z,31.80
2023-03-20T17:14:33.909Z,31.90
2023-03-20T17:17:01.881Z,32.10
2023-03-20T17:19:33.301Z,32.40
2023-03-20T17:22:05.127Z,32.60
2023-03-20T17:24:33.125Z,32.80
2023-03-20T17:27:01.087Z,33.10
2023-03-20T17:29:29.029Z,33.20
2023-03-20T17:31:58.485Z,33.10
2023-03-20T17:34:26.544Z,33.20
2023-03-20T17:36:54.678Z,33.50
2023-03-20T17:39:22.830Z,33.80
2023-03-20T17:41:51.553Z,33.90
2023-03-20T17:44:19.726Z,33.70
2023-03-20T17:46:57.870Z,33.70
2023-03-20T17:49:28.478Z,34.10
2023-03-20T17:51:57.783Z,33.70
2023-03-20T17:54:26.188Z,33.70
2023-03-20T17:56:54.349Z,33.40
2023-03-20T17:59:22.332Z,33.60
2023-03-20T18:01:50.646Z,33.60
2023-03-20T18:04:19.633Z,34.40
2023-03-20T18:06:49.262Z,34.20
2023-03-20T18:09:17.453Z,33.40
2023-03-20T18:11:45.720Z,34.50
2023-03-20T18:14:17.740Z,33.70
2023-03-20T18:16:46.269Z,35.10
2023-03-20T18:19:24.147Z,33.50
2023-03-20T18:21:53.734Z,34.90
2023-03-20T18:24:22.465Z,35.10
2023-03-20T18:26:51.380Z,35.30
2023-03-20T18:29:20.081Z,35.10
2023-03-20T18:31:48.965Z,35.40
2023-03-20T18:34:17.336Z,35.30
2023-03-20T18:36:45.878Z,34.50
2023-03-20T18:39:19.782Z,35.40
2023-03-20T18:41:48.155Z,34.60
2023-03-20T18:44:16.451Z,36.40
2023-03-20T18:46:56.804Z,35.70
2023-03-20T18:49:24.817Z,35.20
2023-03-20T18:51:54.011Z,35.70
2023-03-20T18:54:23.353Z,35.80
2023-03-20T18:56:51.913Z,35.40
2023-03-20T18:59:20.107Z,35.80
2023-03-20T19:01:49.257Z,36.00
2023-03-20T19:04:17.946Z,35.50
2023-03-20T19:06:46.248Z,36.10
2023-03-20T19:09:15.674Z,36.30
2023-03-20T19:11:45.043Z,36.20
2023-03-20T19:14:14.040Z,36.10
2023-03-20T19:16:42.191Z,36.00
2023-03-20T19:19:15.302Z,36.50
2023-03-20T19:21:43.500Z,36.00
2023-03-20T19:24:12.057Z,36.40
2023-03-20T19:26:40.107Z,36.10
2023-03-20T19:29:13.702Z,36.20
2023-03-20T19:31:41.909Z,36.60
2023-03-20T19:34:29.461Z,36.10
2023-03-20T19:36:57.784Z,36.30
2023-03-20T19:39:25.773Z,36.50
2023-03-20T19:41:53.765Z,36.40
2023-03-20T19:44:23.068Z,35.60
2023-03-20T19:46:51.089Z,36.20
2023-03-20T19:49:25.005Z,36.90
2023-03-20T19:51:57.712Z,36.90
2023-03-20T19:54:25.669Z,36.20
2023-03-20T19:56:53.648Z,36.60
2023-03-20T19:59:23.360Z,36.60
2023-03-20T20:01:52.195Z,36.40
2023-03-20T20:04:20.274Z,37.00
2023-03-20T20:06:48.797Z,37.20
2023-03-20T20:09:17.921Z,36.70
2023-03-20T20:11:46.020Z,36.90
2023-03-20T20:14:15.315Z,36.30
2023-03-20T20:16:45.986Z,36.90
2023-03-20T20:19:14.350Z,36.80
2023-03-20T20:24:31.397Z,36.40
2023-03-20T20:27:15.714Z,37.00
2023-03-20T20:29:48.930Z,36.90
2023-03-20T20:32:21.119Z,36.70
2023-03-20T20:40:30.947Z,36.80
2023-03-20T20:43:02.533Z,36.60
2023-03-20T20:45:32.230Z,37.00
2023-03-20T20:48:03.238Z,37.20
2023-03-20T20:50:35.796Z,36.90
2023-03-20T20:53:05.039Z,37.00
2023-03-20T20:55:32.966Z,36.40
2023-03-20T20:58:01.211Z,37.40
2023-03-20T21:00:48.501Z,37.60
2023-03-20T21:03:18.941Z,37.50
2023-03-20T21:05:46.945Z,37.00
2023-03-20T21:08:16.473Z,36.60
2023-03-20T21:10:46.787Z,37.70
2023-03-20T21:13:15.217Z,37.30
2023-03-20T21:15:43.736Z,37.00
2023-03-20T21:18:11.822Z,38.00
2023-03-20T21:20:41.113Z,36.60
2023-03-20T21:23:09.076Z,37.30
2023-03-20T21:25:40.968Z,37.10
2023-03-20T21:28:11.061Z,36.40
2023-03-20T21:31:00.064Z,36.40
2023-03-20T21:33:29.759Z,37.10
2023-03-20T21:35:59.254Z,35.90
2023-03-20T21:41:16.756Z,33.40
2023-03-20T21:43:47.028Z,34.00
2023-03-20T21:55:18.460Z,34.70
2023-03-20T22:03:14.120Z,34.70
2023-03-20T22:06:29.617Z,34.60
2023-03-20T22:09:42.838Z,34.90
2023-03-20T22:12:18.166Z,35.80
2023-03-20T22:20:42.256Z,36.00
2023-03-20T22:29:18.499Z,36.50
2023-03-20T22:31:51.677Z,36.30
2023-03-20T22:34:34.726Z,36.30
2023-03-20T22:37:30.450Z,36.30
2023-03-20T22:45:13.496Z,37.00
2023-03-20T22:47:41.750Z,36.40
2023-03-20T22:50:11.585Z,36.90
2023-03-20T22:52:48.811Z,36.80
2023-03-20T22:55:18.549Z,37.20
2023-03-20T22:58:04.027Z,37.40
2023-03-20T23:00:35.023Z,37.30
2023-03-20T23:03:15.613Z,37.50
2023-03-20T23:05:51.442Z,36.90
2023-03-20T23:08:19.595Z,36.80
2023-03-20T23:10:49.888Z,37.00
2023-03-20T23:13:22.222Z,37.80
2023-03-20T23:15:51.440Z,37.80
2023-03-20T23:18:19.481Z,37.30
2023-03-20T23:20:47.455Z,37.70
2023-03-20T23:23:16.075Z,37.80
2023-03-20T23:25:45.163Z,37.30
2023-03-20T23:28:13.223Z,37.90
2023-03-20T23:30:48.178Z,37.90
2023-03-20T23:33:22.032Z,38.10
2023-03-20T23:35:51.370Z,38.20
2023-03-20T23:38:21.158Z,38.30
2023-03-20T23:40:52.860Z,37.60
2023-03-20T23:43:21.146Z,38.50
2023-03-20T23:45:50.811Z,38.20
2023-03-20T23:48:19.093Z,38.30
2023-03-20T23:50:52.921Z,38.30
2023-03-20T23:53:22.780Z,38.80
2023-03-20T23:55:53.674Z,38.80
2023-03-20T23:58:22.723Z,38.50
